createdAt,value
2018-07-31T00:00:08.469Z,49.481201
2018-07-31T00:01:24.343Z,49.279785
2018-07-31T00:02:40.254Z,49.084473
2018-07-31T00:03:56.169Z,49.157715
2018-07-31T00:05:12.040Z,48.858643
2018-07-31T00:06:27.948Z,48.7854
2018-07-31T00:07:43.834Z,48.883057
2018-07-31T00:08:59.741Z,48.883057
2018-07-31T00:10:15.621Z,48.883057
2018-07-31T00:11:31.477Z,48.883057
2018-07-31T00:12:47.325Z,48.583984
2018-07-31T00:14:03.213Z,48.681641
2018-07-31T00:15:19.070Z,48.382568
2018-07-31T00:16:34.956Z,48.083496
2018-07-31T00:17:50.813Z,48.083496
2018-07-31T00:19:06.743Z,48.083496
2018-07-31T00:20:22.632Z,48.083496
2018-07-31T00:21:38.578Z,47.98584
2018-07-31T00:22:54.500Z,47.790527
2018-07-31T00:24:10.366Z,47.98584
2018-07-31T00:25:26.248Z,47.888184
2018-07-31T00:26:42.118Z,47.387695
2018-07-31T00:27:57.964Z,47.686768
2018-07-31T00:29:13.881Z,47.888184
2018-07-31T00:30:29.987Z,48.187256
2018-07-31T00:31:45.865Z,48.681641
2018-07-31T00:33:01.738Z,49.206543
2018-07-31T00:34:17.642Z,49.603271
2018-07-31T00:35:33.554Z,49.804688
2018-07-31T00:36:49.419Z,50
2018-07-31T00:38:05.277Z,50.201416
2018-07-31T00:39:21.150Z,50.299072
2018-07-31T00:40:37.032Z,50.598145
2018-07-31T00:41:52.893Z,50.402832
2018-07-31T00:43:08.771Z,50.701904
2018-07-31T00:44:24.672Z,50.598145
2018-07-31T00:45:40.574Z,50.598145
2018-07-31T00:46:56.450Z,50.622559
2018-07-31T00:49:53.252Z,50.22583
2018-07-31T00:51:09.216Z,50.299072
2018-07-31T00:54:06.924Z,50.22583
2018-07-31T00:55:22.811Z,50.445557
2018-07-31T00:56:38.682Z,50.323486
2018-07-31T00:57:54.583Z,50.549316
2018-07-31T00:59:10.435Z,50.549316
2018-07-31T01:00:26.317Z,50.848389
2018-07-31T01:01:42.165Z,50.549316
2018-07-31T01:02:58.095Z,50.524902
2018-07-31T01:04:14.114Z,50.323486
2018-07-31T01:05:30.017Z,50.427246
2018-07-31T01:06:45.905Z,50.427246
2018-07-31T01:08:01.815Z,50.427246
2018-07-31T01:09:17.676Z,50.524902
2018-07-31T01:10:33.579Z,50.524902
2018-07-31T01:11:49.448Z,50.524902
2018-07-31T01:13:05.341Z,50.427246
2018-07-31T01:14:21.206Z,50.848389
2018-07-31T01:15:37.083Z,50.744629
2018-07-31T01:16:52.963Z,50.744629
2018-07-31T01:18:08.853Z,50.823975
2018-07-31T01:19:24.738Z,50.427246
2018-07-31T01:20:40.643Z,50.22583
2018-07-31T01:21:56.522Z,50.524902
2018-07-31T01:23:12.425Z,50.427246
2018-07-31T01:24:28.337Z,50.622559
2018-07-31T01:25:44.225Z,50.622559
2018-07-31T01:27:00.070Z,51.049805
2018-07-31T01:28:15.919Z,51.123047
2018-07-31T01:29:31.823Z,51.348877
2018-07-31T01:30:47.663Z,51.745605
2018-07-31T01:32:03.519Z,51.647949
2018-07-31T01:33:19.537Z,51.519775
2018-07-31T01:34:35.408Z,51.220703
2018-07-31T01:35:51.292Z,51.123047
2018-07-31T01:37:07.131Z,51.220703
2018-07-31T01:38:22.997Z,51.220703
2018-07-31T01:39:38.871Z,51.220703
2018-07-31T01:40:54.720Z,51.544189
2018-07-31T01:42:10.587Z,51.745605
2018-07-31T01:43:26.479Z,51.647949
2018-07-31T01:44:42.369Z,51.647949
2018-07-31T01:45:58.273Z,51.843262
2018-07-31T01:47:14.185Z,51.745605
2018-07-31T01:48:30.056Z,52.044678
2018-07-31T01:49:45.938Z,52.270508
2018-07-31T01:51:01.814Z,52.246094
2018-07-31T01:52:17.725Z,51.947021
2018-07-31T01:53:33.587Z,52.142334
2018-07-31T01:54:49.471Z,52.246094
2018-07-31T01:56:05.375Z,52.142334
2018-07-31T01:57:21.262Z,52.142334
2018-07-31T01:58:37.153Z,52.142334
2018-07-31T01:59:53.065Z,52.142334
2018-07-31T02:01:08.913Z,51.916504
2018-07-31T02:02:24.804Z,52.020264
2018-07-31T02:03:40.688Z,52.246094
2018-07-31T02:04:56.567Z,52.34375
2018-07-31T02:07:53.435Z,52.740479
2018-07-31T02:09:09.300Z,52.667236
2018-07-31T02:10:25.215Z,52.545166
2018-07-31T02:11:41.126Z,52.34375
2018-07-31T02:12:56.980Z,52.246094
2018-07-31T02:14:12.845Z,52.142334
2018-07-31T02:15:28.728Z,52.441406
2018-07-31T02:16:44.623Z,52.441406
2018-07-31T02:18:00.545Z,52.441406
2018-07-31T02:19:16.473Z,52.545166
2018-07-31T02:20:32.407Z,52.642822
2018-07-31T02:21:48.269Z,52.764893
2018-07-31T02:23:04.170Z,52.667236
2018-07-31T02:24:20.049Z,52.56958
2018-07-31T02:25:35.972Z,52.667236
2018-07-31T02:26:51.874Z,52.868652
2018-07-31T02:28:07.815Z,53.063965
2018-07-31T02:29:23.718Z,53.063965
2018-07-31T02:30:39.709Z,52.868652
2018-07-31T02:31:55.581Z,53.094482
2018-07-31T02:33:11.453Z,53.393555
2018-07-31T02:34:27.344Z,53.717041
2018-07-31T02:35:43.261Z,54.11377
2018-07-31T02:36:59.232Z,54.11377
2018-07-31T02:38:15.179Z,53.918457
2018-07-31T02:39:31.040Z,53.491211
2018-07-31T02:40:46.904Z,53.289795
2018-07-31T02:42:02.772Z,53.393555
2018-07-31T02:43:19.649Z,53.491211
2018-07-31T02:44:35.550Z,53.588867
2018-07-31T02:45:51.480Z,53.814697
2018-07-31T02:47:07.353Z,53.814697
2018-07-31T02:48:23.250Z,54.016113
2018-07-31T02:49:39.167Z,54.016113
2018-07-31T02:50:55.078Z,54.241943
2018-07-31T02:52:10.955Z,54.217529
2018-07-31T02:53:26.841Z,54.016113
2018-07-31T02:54:42.715Z,54.016113
2018-07-31T02:55:58.634Z,54.11377
2018-07-31T02:57:14.517Z,53.918457
2018-07-31T02:58:30.491Z,54.443359
2018-07-31T02:59:46.457Z,54.541016
2018-07-31T03:01:02.343Z,54.638672
2018-07-31T03:02:18.393Z,54.968262
2018-07-31T03:03:34.421Z,55.267334
2018-07-31T03:04:50.328Z,55.59082
2018-07-31T03:06:06.189Z,55.59082
2018-07-31T03:07:22.065Z,55.267334
2018-07-31T03:08:38.014Z,55.065918
2018-07-31T03:09:53.927Z,55.59082
2018-07-31T03:11:09.829Z,55.59082
2018-07-31T03:12:25.703Z,55.889893
2018-07-31T03:13:41.580Z,55.889893
2018-07-31T03:14:57.655Z,55.993652
2018-07-31T03:16:13.746Z,55.993652
2018-07-31T03:17:29.628Z,56.091309
2018-07-31T03:18:45.508Z,56.420898
2018-07-31T03:20:01.475Z,56.719971
2018-07-31T03:21:17.464Z,56.921387
2018-07-31T03:22:33.378Z,56.921387
2018-07-31T03:23:49.369Z,56.622314
2018-07-31T03:25:05.279Z,56.622314
2018-07-31T03:26:21.287Z,56.622314
2018-07-31T03:27:37.234Z,56.622314
2018-07-31T03:28:53.267Z,56.420898
2018-07-31T03:30:09.212Z,56.622314
2018-07-31T03:31:25.105Z,56.420898
2018-07-31T03:32:41.004Z,56.945801
2018-07-31T03:33:56.878Z,56.518555
2018-07-31T03:35:12.773Z,56.622314
2018-07-31T03:36:28.814Z,56.219482
2018-07-31T03:37:44.821Z,56.646729
2018-07-31T03:39:01.703Z,56.646729
2018-07-31T03:40:18.609Z,56.848145
2018-07-31T03:41:34.552Z,56.945801
2018-07-31T03:42:50.565Z,56.945801
2018-07-31T03:44:06.449Z,56.420898
2018-07-31T03:45:22.330Z,56.445312
2018-07-31T03:46:38.385Z,56.420898
2018-07-31T03:47:54.272Z,56.549072
2018-07-31T03:49:10.291Z,56.646729
2018-07-31T03:50:26.208Z,56.945801
2018-07-31T03:51:42.135Z,56.848145
2018-07-31T03:52:58.018Z,56.347656
2018-07-31T03:54:13.921Z,56.420898
2018-07-31T03:55:29.864Z,56.445312
2018-07-31T03:56:45.813Z,56.018066
2018-07-31T03:58:02.783Z,55.92041
2018-07-31T03:59:18.713Z,55.718994
2018-07-31T04:00:34.719Z,56.018066
2018-07-31T04:01:50.629Z,56.549072
2018-07-31T04:03:06.621Z,56.347656
2018-07-31T04:04:22.636Z,56.347656
2018-07-31T04:05:38.521Z,56.347656
2018-07-31T04:06:54.416Z,56.121826
2018-07-31T04:08:10.446Z,56.219482
2018-07-31T04:09:26.470Z,56.091309
2018-07-31T04:10:42.392Z,56.518555
2018-07-31T04:11:58.287Z,56.622314
2018-07-31T04:13:14.191Z,56.420898
2018-07-31T04:14:30.117Z,56.622314
2018-07-31T04:15:46.024Z,56.719971
2018-07-31T04:17:01.987Z,56.817627
2018-07-31T04:18:17.934Z,56.817627
2018-07-31T04:19:33.869Z,57.019043
2018-07-31T04:20:49.783Z,57.019043
2018-07-31T04:22:05.676Z,56.921387
2018-07-31T04:23:21.573Z,56.622314
2018-07-31T04:24:37.562Z,56.518555
2018-07-31T04:25:53.488Z,57.019043
2018-07-31T04:27:09.567Z,57.147217
2018-07-31T04:28:25.594Z,56.719971
2018-07-31T04:29:41.472Z,57.049561
2018-07-31T04:30:57.518Z,56.945801
2018-07-31T04:32:13.446Z,56.719971
2018-07-31T04:33:29.384Z,56.848145
2018-07-31T04:34:45.328Z,56.945801
2018-07-31T04:36:01.272Z,56.848145
2018-07-31T04:37:17.166Z,56.420898
2018-07-31T04:38:33.194Z,56.518555
2018-07-31T04:39:49.168Z,56.317139
2018-07-31T04:41:05.056Z,56.317139
2018-07-31T04:42:21.012Z,57.049561
2018-07-31T04:43:36.977Z,57.348633
2018-07-31T04:44:52.911Z,57.244873
2018-07-31T04:46:08.959Z,57.348633
2018-07-31T04:47:25.041Z,57.348633
2018-07-31T04:48:40.999Z,57.244873
2018-07-31T04:49:56.889Z,57.348633
2018-07-31T04:51:12.811Z,57.446289
2018-07-31T04:52:28.802Z,57.122803
2018-07-31T04:53:45.859Z,57.147217
2018-07-31T04:55:01.801Z,57.446289
2018-07-31T04:56:17.795Z,57.446289
2018-07-31T04:57:33.818Z,57.446289
2018-07-31T04:58:49.880Z,57.421875
2018-07-31T05:00:05.817Z,58.148193
2018-07-31T05:01:21.734Z,57.720947
2018-07-31T05:02:37.760Z,58.050537
2018-07-31T05:03:53.844Z,57.922363
2018-07-31T05:05:09.935Z,57.720947
2018-07-31T05:06:25.971Z,57.818604
2018-07-31T05:07:41.895Z,57.720947
2018-07-31T05:08:57.905Z,57.720947
2018-07-31T05:10:13.981Z,58.02002
2018-07-31T05:11:29.893Z,58.349609
2018-07-31T05:12:45.891Z,58.221436
2018-07-31T05:14:01.872Z,58.221436
2018-07-31T05:15:17.843Z,58.319092
2018-07-31T05:16:33.809Z,58.221436
2018-07-31T05:17:49.747Z,58.117676
2018-07-31T05:19:05.728Z,58.618164
2018-07-31T05:20:21.665Z,58.190918
2018-07-31T05:21:37.636Z,57.794189
2018-07-31T05:22:53.653Z,57.891846
2018-07-31T05:24:09.592Z,57.666016
2018-07-31T05:25:25.565Z,57.568359
2018-07-31T05:26:41.531Z,57.891846
2018-07-31T05:29:38.999Z,58.093262
2018-07-31T05:30:55.098Z,58.190918
2018-07-31T05:32:11.014Z,58.062744
2018-07-31T05:33:26.933Z,57.763672
2018-07-31T05:34:42.866Z,57.965088
2018-07-31T05:35:58.777Z,57.763672
2018-07-31T05:37:14.860Z,57.965088
2018-07-31T05:38:30.755Z,58.166504
2018-07-31T05:39:46.761Z,58.03833
2018-07-31T05:41:02.643Z,58.03833
2018-07-31T05:42:18.536Z,58.03833
2018-07-31T05:43:34.545Z,57.93457
2018-07-31T05:44:50.438Z,57.93457
2018-07-31T05:46:06.389Z,58.03833
2018-07-31T05:47:22.403Z,58.135986
2018-07-31T05:48:38.343Z,58.007812
2018-07-31T05:49:54.267Z,57.8125
2018-07-31T05:51:10.188Z,57.8125
2018-07-31T05:52:26.111Z,57.8125
2018-07-31T05:53:42.030Z,57.910156
2018-07-31T05:54:57.905Z,57.910156
2018-07-31T05:56:13.911Z,57.879639
2018-07-31T05:57:29.857Z,57.781982
2018-07-31T05:58:45.783Z,57.781982
2018-07-31T06:00:01.813Z,57.684326
2018-07-31T06:01:17.766Z,57.580566
2018-07-31T06:02:33.712Z,57.684326
2018-07-31T06:03:49.641Z,57.879639
2018-07-31T06:05:05.569Z,57.653809
2018-07-31T06:06:21.472Z,57.855225
2018-07-31T06:07:37.360Z,57.855225
2018-07-31T06:08:53.258Z,57.855225
2018-07-31T06:10:09.189Z,57.727051
2018-07-31T06:11:25.239Z,57.629395
2018-07-31T06:12:41.247Z,57.525635
2018-07-31T06:13:57.246Z,57.629395
2018-07-31T06:15:13.196Z,57.427979
2018-07-31T06:16:29.067Z,57.525635
2018-07-31T06:17:44.989Z,57.727051
2018-07-31T06:19:00.915Z,57.995605
2018-07-31T06:20:16.862Z,58.099365
2018-07-31T06:21:32.949Z,57.995605
2018-07-31T06:22:48.894Z,58.197021
2018-07-31T06:24:04.824Z,58.197021
2018-07-31T06:25:20.815Z,58.398438
2018-07-31T06:26:36.823Z,58.59375
2018-07-31T06:27:52.846Z,58.172607
2018-07-31T06:29:08.776Z,58.068848
2018-07-31T06:30:24.670Z,58.172607
2018-07-31T06:31:40.666Z,58.36792
2018-07-31T06:32:56.603Z,58.36792
2018-07-31T06:34:12.641Z,58.666992
2018-07-31T06:35:28.571Z,59.765625
2018-07-31T06:36:44.480Z,60.26001
2018-07-31T06:38:00.408Z,60.986328
2018-07-31T06:39:16.276Z,61.38916
2018-07-31T06:40:32.316Z,61.38916
2018-07-31T06:41:48.168Z,61.584473
2018-07-31T06:43:04.124Z,62.213135
2018-07-31T06:44:20.099Z,62.084961
2018-07-31T06:45:36.016Z,61.883545
2018-07-31T06:46:51.977Z,61.987305
2018-07-31T06:48:07.911Z,62.115479
2018-07-31T06:49:23.996Z,61.816406
2018-07-31T06:50:39.902Z,62.011719
2018-07-31T06:51:55.842Z,61.883545
2018-07-31T06:53:11.901Z,62.084961
2018-07-31T06:54:27.830Z,61.688232
2018-07-31T06:55:43.799Z,61.584473
2018-07-31T06:56:59.719Z,61.584473
2018-07-31T06:58:15.652Z,61.456299
2018-07-31T06:59:31.652Z,61.688232
2018-07-31T07:00:47.574Z,61.456299
2018-07-31T07:02:03.763Z,60.961914
2018-07-31T07:03:19.739Z,61.157227
2018-07-31T07:04:35.618Z,60.961914
2018-07-31T07:05:51.628Z,61.157227
2018-07-31T07:07:07.742Z,61.254883
2018-07-31T07:08:23.706Z,61.328125
2018-07-31T07:09:39.624Z,61.553955
2018-07-31T07:13:52.015Z,61.425781
2018-07-31T07:15:08.007Z,61.029053
2018-07-31T07:16:23.983Z,61.029053
2018-07-31T07:17:40.044Z,61.029053
2018-07-31T07:18:55.990Z,60.827637
2018-07-31T07:20:12.095Z,60.534668
2018-07-31T07:21:28.004Z,60.235596
2018-07-31T07:22:44.014Z,60.430908
2018-07-31T07:23:59.905Z,60.302734
2018-07-31T07:25:15.810Z,60.900879
2018-07-31T07:26:31.850Z,60.900879
2018-07-31T07:27:47.860Z,61.425781
2018-07-31T07:29:03.750Z,61.297607
2018-07-31T07:30:19.743Z,61.395264
2018-07-31T07:31:35.714Z,60.699463
2018-07-31T07:32:51.649Z,60.803223
2018-07-31T07:34:07.738Z,60.998535
2018-07-31T07:35:23.695Z,61.297607
2018-07-31T07:36:39.696Z,61.59668
2018-07-31T07:37:55.628Z,61.59668
2018-07-31T07:39:11.513Z,61.499023
2018-07-31T07:40:27.445Z,60.998535
2018-07-31T07:41:43.412Z,60.900879
2018-07-31T07:42:59.532Z,60.375977
2018-07-31T07:44:15.485Z,60.174561
2018-07-31T07:45:31.625Z,60.473633
2018-07-31T07:46:47.515Z,60.272217
2018-07-31T07:48:06.227Z,60.076904
2018-07-31T07:49:22.261Z,59.875488
2018-07-31T07:50:38.231Z,59.875488
2018-07-31T07:51:54.147Z,59.94873
2018-07-31T07:53:10.067Z,60.144043
2018-07-31T07:54:26.019Z,59.747314
2018-07-31T07:55:42.008Z,59.851074
2018-07-31T07:56:57.969Z,58.953857
2018-07-31T07:58:14.018Z,59.14917
2018-07-31T07:59:29.935Z,58.654785
2018-07-31T08:00:45.909Z,58.453369
2018-07-31T08:02:01.859Z,59.14917
2018-07-31T08:03:17.776Z,58.258057
2018-07-31T08:04:33.845Z,58.953857
2018-07-31T08:05:49.783Z,59.14917
2018-07-31T08:07:05.764Z,59.649658
2018-07-31T08:08:21.763Z,59.649658
2018-07-31T08:09:37.693Z,60.247803
2018-07-31T08:10:53.673Z,59.649658
2018-07-31T08:12:09.633Z,60.247803
2018-07-31T08:13:25.638Z,60.345459
2018-07-31T08:14:41.560Z,60.345459
2018-07-31T08:15:57.746Z,60.443115
2018-07-31T08:17:14.177Z,60.217285
2018-07-31T08:18:30.204Z,60.119629
2018-07-31T08:19:46.526Z,59.820557
2018-07-31T08:22:43.615Z,60.217285
2018-07-31T08:23:59.787Z,60.418701
2018-07-31T08:26:56.970Z,60.314941
2018-07-31T08:29:53.534Z,60.418701
2018-07-31T08:31:09.555Z,60.217285
2018-07-31T08:32:25.481Z,60.614014
2018-07-31T08:33:41.448Z,60.81543
2018-07-31T08:34:57.682Z,60.388184
2018-07-31T08:36:14.201Z,59.7229
2018-07-31T08:37:30.476Z,60.119629
2018-07-31T08:38:46.755Z,60.314941
2018-07-31T08:40:03.068Z,60.614014
2018-07-31T08:41:19.076Z,60.516357
2018-07-31T08:42:34.965Z,60.882568
2018-07-31T08:43:50.911Z,60.26001
2018-07-31T08:45:06.991Z,60.089111
2018-07-31T08:46:23.436Z,59.863281
2018-07-31T08:50:36.984Z,59.759521
2018-07-31T08:51:52.930Z,60.583496
2018-07-31T08:53:08.999Z,60.284424
2018-07-31T08:54:25.063Z,60.284424
2018-07-31T08:55:41.112Z,60.388184
2018-07-31T08:56:57.193Z,60.882568
2018-07-31T08:58:13.049Z,60.687256
2018-07-31T08:59:29.128Z,60.583496
2018-07-31T09:00:45.137Z,60.455322
2018-07-31T09:02:01.036Z,59.631348
2018-07-31T09:03:16.985Z,59.960938
2018-07-31T09:04:32.957Z,59.960938
2018-07-31T09:05:48.932Z,59.265137
2018-07-31T09:07:04.881Z,59.265137
2018-07-31T09:11:18.158Z,58.868408
2018-07-31T09:12:34.228Z,58.666992
2018-07-31T09:13:50.554Z,58.868408
2018-07-31T09:15:07.170Z,59.234619
2018-07-31T09:16:23.408Z,58.837891
2018-07-31T09:17:39.763Z,58.319092
2018-07-31T09:18:55.944Z,56.829834
2018-07-31T09:20:12.077Z,57.720947
2018-07-31T09:21:28.360Z,58.911133
2018-07-31T09:24:25.130Z,60.327148
2018-07-31T09:25:41.005Z,60.131836
2018-07-31T09:26:57.406Z,59.832764
2018-07-31T09:28:14.046Z,59.70459
2018-07-31T09:29:30.408Z,59.606934
2018-07-31T09:30:46.870Z,59.210205
2018-07-31T09:32:03.029Z,59.70459
2018-07-31T09:33:19.167Z,60.003662
2018-07-31T09:34:35.175Z,59.70459
2018-07-31T09:35:51.171Z,59.70459
2018-07-31T09:37:07.196Z,59.47876
2018-07-31T09:38:23.153Z,59.277344
2018-07-31T09:39:39.153Z,59.210205
2018-07-31T09:40:55.212Z,59.307861
2018-07-31T09:42:11.180Z,59.307861
2018-07-31T09:43:27.203Z,59.509277
2018-07-31T09:44:43.134Z,59.802246
2018-07-31T09:45:59.519Z,59.606934
2018-07-31T09:47:15.866Z,59.606934
2018-07-31T09:48:31.856Z,59.405518
2018-07-31T09:49:47.835Z,59.70459
2018-07-31T09:51:03.814Z,60.101318
2018-07-31T09:54:00.782Z,60.070801
2018-07-31T09:55:16.748Z,59.973145
2018-07-31T09:56:32.734Z,59.777832
2018-07-31T09:57:48.853Z,60.070801
2018-07-31T09:59:04.864Z,60.272217
2018-07-31T10:00:20.828Z,60.003662
2018-07-31T10:01:36.745Z,59.973145
2018-07-31T10:02:52.795Z,60.070801
2018-07-31T10:04:08.898Z,59.875488
2018-07-31T10:05:24.944Z,59.747314
2018-07-31T10:06:40.890Z,59.747314
2018-07-31T10:07:56.839Z,59.448242
2018-07-31T10:09:12.927Z,59.051514
2018-07-31T10:10:28.883Z,58.654785
2018-07-31T10:11:44.843Z,58.752441
2018-07-31T10:13:00.799Z,57.269287
2018-07-31T10:14:16.775Z,58.459473
2018-07-31T10:15:32.700Z,58.459473
2018-07-31T10:16:48.788Z,58.233643
2018-07-31T10:18:05.301Z,58.428955
2018-07-31T10:19:22.052Z,58.233643
2018-07-31T10:22:18.844Z,57.635498
2018-07-31T10:23:34.881Z,55.755615
2018-07-31T10:24:50.824Z,56.25
2018-07-31T10:26:06.814Z,55.657959
2018-07-31T10:27:22.841Z,54.467773
2018-07-31T10:28:38.881Z,55.163574
2018-07-31T10:29:54.831Z,55.957031
2018-07-31T10:31:10.780Z,56.152344
2018-07-31T10:32:26.745Z,55.358887
2018-07-31T10:33:42.785Z,55.755615
2018-07-31T10:34:58.774Z,54.669189
2018-07-31T10:36:14.798Z,56.152344
2018-07-31T10:37:30.825Z,54.962158
2018-07-31T10:38:46.684Z,57.537842
2018-07-31T10:40:02.719Z,54.56543
2018-07-31T10:41:18.743Z,56.25
2018-07-31T10:42:34.761Z,53.35083
2018-07-31T10:43:50.817Z,53.35083
2018-07-31T10:45:06.741Z,54.144287
2018-07-31T10:46:22.700Z,53.851318
2018-07-31T10:47:38.748Z,53.253174
2018-07-31T10:48:54.743Z,51.373291
2018-07-31T10:50:10.745Z,53.649902
2018-07-31T10:51:26.718Z,54.046631
2018-07-31T10:52:42.625Z,54.840088
2018-07-31T10:53:58.650Z,52.929688
2018-07-31T10:55:14.578Z,53.527832
2018-07-31T10:56:30.537Z,54.315186
2018-07-31T10:57:46.623Z,54.119873
2018-07-31T10:59:02.751Z,53.527832
2018-07-31T11:00:18.890Z,53.747559
2018-07-31T11:01:34.694Z,54.315186
2018-07-31T11:02:51.755Z,54.91333
2018-07-31T11:04:07.841Z,54.022217
2018-07-31T11:05:24.054Z,53.033447
2018-07-31T11:06:40.054Z,53.033447
2018-07-31T11:07:55.951Z,52.709961
2018-07-31T11:09:11.925Z,52.807617
2018-07-31T11:10:27.981Z,53.302002
2018-07-31T11:11:43.856Z,51.12915
2018-07-31T11:12:59.870Z,51.818848
2018-07-31T11:14:15.797Z,50.927734
2018-07-31T11:15:31.932Z,52.11792
2018-07-31T11:16:47.867Z,51.916504
2018-07-31T11:18:03.796Z,52.313232
2018-07-31T11:19:19.756Z,52.11792
2018-07-31T11:20:35.852Z,51.916504
2018-07-31T11:21:51.786Z,50.634766
2018-07-31T11:24:48.613Z,51.593018
2018-07-31T11:26:03.665Z,51.794434
2018-07-31T11:27:19.650Z,51.519775
2018-07-31T11:28:35.574Z,51.794434
2018-07-31T11:29:51.541Z,51.794434
2018-07-31T11:31:07.566Z,51.098633
2018-07-31T11:32:23.554Z,51.202393
2018-07-31T11:33:39.589Z,51.495361
2018-07-31T11:34:55.537Z,51.000977
2018-07-31T11:36:11.672Z,51.300049
2018-07-31T11:37:27.629Z,51.098633
2018-07-31T11:38:43.692Z,51.397705
2018-07-31T11:39:59.713Z,51.098633
2018-07-31T11:41:15.645Z,51.202393
2018-07-31T11:42:31.601Z,51.373291
2018-07-31T11:43:47.710Z,50.683594
2018-07-31T11:45:03.677Z,50.189209
2018-07-31T11:46:19.643Z,51.470947
2018-07-31T11:47:35.603Z,51.672363
2018-07-31T11:48:51.641Z,50.189209
2018-07-31T11:50:07.683Z,50.878906
2018-07-31T11:51:23.555Z,50.091553
2018-07-31T11:52:39.556Z,50.878906
2018-07-31T11:53:55.449Z,51.275635
2018-07-31T11:55:11.427Z,50.878906
2018-07-31T11:56:27.504Z,51.275635
2018-07-31T11:57:43.487Z,50.164795
2018-07-31T11:58:59.486Z,50.65918
2018-07-31T12:00:15.476Z,50.952148
2018-07-31T12:01:31.478Z,50.561523
2018-07-31T12:02:47.542Z,49.67041
2018-07-31T12:04:03.501Z,50.854492
2018-07-31T12:05:19.448Z,49.963379
2018-07-31T12:06:35.351Z,49.273682
2018-07-31T12:07:51.385Z,50.164795
2018-07-31T12:09:07.373Z,48.681641
2018-07-31T12:10:23.343Z,50.164795
2018-07-31T12:11:39.295Z,51.251221
2018-07-31T12:12:55.264Z,52.23999
2018-07-31T12:14:11.198Z,51.843262
2018-07-31T12:15:27.127Z,51.940918
2018-07-31T12:16:43.192Z,51.446533
2018-07-31T12:17:59.158Z,51.544189
2018-07-31T12:19:15.258Z,52.435303
2018-07-31T12:20:32.119Z,52.410889
2018-07-31T12:21:48.851Z,51.226807
2018-07-31T12:23:05.324Z,51.025391
2018-07-31T12:29:23.838Z,50.634766
2018-07-31T12:30:40.259Z,50.537109
2018-07-31T12:31:56.537Z,51.025391
2018-07-31T12:33:12.877Z,50.634766
2018-07-31T12:34:29.752Z,50.610352
2018-07-31T12:35:46.040Z,50.311279
2018-07-31T12:39:58.696Z,50.805664
2018-07-31T12:41:14.642Z,49.328613
2018-07-31T12:42:30.616Z,48.834229
2018-07-31T12:43:46.565Z,50.018311
2018-07-31T12:45:02.600Z,50.018311
2018-07-31T12:46:18.552Z,50.708008
2018-07-31T12:47:34.655Z,50.90332
2018-07-31T12:48:50.688Z,50.90332
2018-07-31T12:50:06.814Z,51.989746
2018-07-31T12:51:22.854Z,52.947998
2018-07-31T12:52:38.829Z,51.965332
2018-07-31T12:53:54.780Z,52.655029
2018-07-31T12:55:10.824Z,50.976562
2018-07-31T12:56:26.779Z,51.77002
2018-07-31T12:57:42.745Z,52.160645
2018-07-31T12:58:58.816Z,53.051758
2018-07-31T13:00:14.762Z,52.160645
2018-07-31T13:01:30.802Z,49.200439
2018-07-31T13:02:46.892Z,48.388672
2018-07-31T13:04:02.826Z,46.520996
2018-07-31T13:05:18.927Z,47.009277
2018-07-31T13:08:15.549Z,47.601318
2018-07-31T13:09:31.596Z,48.712158
2018-07-31T13:10:47.519Z,49.304199
2018-07-31T13:12:03.469Z,48.388672
2018-07-31T13:13:19.509Z,47.998047
2018-07-31T13:14:35.434Z,46.716309
2018-07-31T13:15:51.494Z,48.388672
2018-07-31T13:17:07.579Z,47.998047
2018-07-31T13:18:23.524Z,47.601318
2018-07-31T13:19:39.436Z,47.30835
2018-07-31T13:20:55.362Z,47.009277
2018-07-31T13:22:11.275Z,47.406006
2018-07-31T13:23:27.410Z,48.095703
2018-07-31T13:26:24.641Z,48.590088
2018-07-31T13:29:21.501Z,46.099854
2018-07-31T13:30:37.562Z,44.818115
2018-07-31T13:31:53.576Z,47.875977
2018-07-31T13:33:09.547Z,46.691895
2018-07-31T13:34:25.553Z,45.806885
2018-07-31T13:35:41.453Z,46.099854
2018-07-31T13:36:57.434Z,47.088623
2018-07-31T13:38:13.338Z,47.479248
2018-07-31T13:39:29.330Z,44.921875
2018-07-31T13:40:45.345Z,47.283936
2018-07-31T13:42:01.283Z,46.30127
2018-07-31T13:43:17.381Z,45.806885
2018-07-31T13:44:33.352Z,46.789551
2018-07-31T13:45:49.330Z,47.65625
2018-07-31T13:47:05.375Z,46.868896
2018-07-31T13:48:21.349Z,47.753906
2018-07-31T13:49:37.526Z,47.186279
2018-07-31T13:50:53.563Z,48.071289
2018-07-31T13:52:09.593Z,49.450684
2018-07-31T13:53:25.649Z,50.634766
2018-07-31T13:54:41.603Z,49.353027
2018-07-31T13:55:57.509Z,47.460938
2018-07-31T13:57:13.443Z,44.897461
2018-07-31T13:58:29.402Z,44.207764
2018-07-31T13:59:45.544Z,45.684814
2018-07-31T14:01:01.516Z,45.782471
2018-07-31T14:02:17.424Z,44.799805
2018-07-31T14:03:33.400Z,44.110107
2018-07-31T14:04:49.341Z,44.604492
2018-07-31T14:06:05.285Z,42.236328
2018-07-31T14:07:21.429Z,43.127441
2018-07-31T14:08:37.397Z,42.633057
2018-07-31T14:09:53.412Z,43.615723
2018-07-31T14:11:09.389Z,41.351318
2018-07-31T14:12:25.359Z,41.845703
2018-07-31T14:13:41.319Z,40.759277
2018-07-31T14:14:57.197Z,40.838623
2018-07-31T14:16:13.174Z,38.873291
2018-07-31T14:17:29.273Z,39.263916
2018-07-31T14:18:45.197Z,40.05127
2018-07-31T14:20:01.186Z,40.350342
2018-07-31T14:21:17.263Z,40.447998
2018-07-31T14:22:33.243Z,39.367676
2018-07-31T14:23:49.222Z,38.183594
2018-07-31T14:25:05.136Z,37.200928
2018-07-31T14:26:21.107Z,38.970947
2018-07-31T14:27:37.084Z,37.988281
2018-07-31T14:28:53.101Z,37.689209
2018-07-31T14:30:09.129Z,38.085938
2018-07-31T14:31:26.115Z,37.298584
2018-07-31T14:32:42.131Z,35.919189
2018-07-31T14:33:58.089Z,36.218262
2018-07-31T14:35:14.139Z,35.821533
2018-07-31T14:36:30.159Z,35.803223
2018-07-31T14:37:46.078Z,35.113525
2018-07-31T14:39:02.115Z,36.395264
2018-07-31T14:40:18.121Z,36.297607
2018-07-31T14:41:34.169Z,37.792969
2018-07-31T14:42:50.335Z,39.465332
2018-07-31T14:44:06.250Z,39.367676
2018-07-31T14:45:22.196Z,38.659668
2018-07-31T14:46:38.146Z,39.660645
2018-07-31T14:47:54.111Z,39.953613
2018-07-31T14:49:10.153Z,40.332031
2018-07-31T14:50:26.157Z,41.51001
2018-07-31T14:51:42.260Z,39.935303
2018-07-31T14:52:58.389Z,36.987305
2018-07-31T14:54:14.474Z,39.050293
2018-07-31T14:55:30.604Z,39.837646
2018-07-31T14:56:47.688Z,38.952637
2018-07-31T14:58:03.881Z,39.245605
2018-07-31T14:59:19.799Z,39.245605
2018-07-31T15:00:35.832Z,39.642334
2018-07-31T15:01:51.992Z,39.837646
2018-07-31T15:03:08.003Z,39.642334
2018-07-31T15:04:24.643Z,40.032959
2018-07-31T15:05:40.613Z,40.332031
2018-07-31T15:06:56.602Z,40.228271
2018-07-31T15:08:12.544Z,40.527344
2018-07-31T15:09:28.529Z,40.130615